sensor_id;sensor_type;location;lat;lon;timestamp;temperature;humidity
20957;DHT22;10637;47.970;7.830;2023-03-03T00:03:48;2.30;99.90
20957;DHT22;10637;47.970;7.830;2023-03-03T00:08:50;2.40;99.90
20957;DHT22;10637;47.970;7.830;2023-03-03T00:13:54;2.40;99.90
20957;DHT22;10637;47.970;7.830;2023-03-03T00:18:56;2.10;99.90
20957;DHT22;10637;47.970;7.830;2023-03-03T00:29:39;1.80;99.90
20957;DHT22;10637;47.970;7.830;2023-03-03T00:34:42;1.70;99.90
20957;DHT22;10637;47.970;7.830;2023-03-03T00:39:43;1.80;99.90
20957;DHT22;10637;47.970;7.830;2023-03-03T00:44:47;1.80;99.90
20957;DHT22;10637;47.970;7.830;2023-03-03T00:49:49;1.80;99.90
20957;DHT22;10637;47.970;7.830;2023-03-03T00:54:50;1.90;99.90
20957;DHT22;10637;47.970;7.830;2023-03-03T00:59:52;2.20;99.90
20957;DHT22;10637;47.970;7.830;2023-03-03T01:04:54;2.20;99.90
20957;DHT22;10637;47.970;7.830;2023-03-03T01:09:56;2.20;99.90
20957;DHT22;10637;47.970;7.830;2023-03-03T01:14:58;2.00;99.90
20957;DHT22;10637;47.970;7.830;2023-03-03T01:20:00;2.00;99.90
20957;DHT22;10637;47.970;7.830;2023-03-03T01:25:02;1.60;99.90
20957;DHT22;10637;47.970;7.830;2023-03-03T01:30:05;1.50;99.90
20957;DHT22;10637;47.970;7.830;2023-03-03T01:35:08;1.50;99.90
20957;DHT22;10637;47.970;7.830;2023-03-03T01:40:17;1.60;99.90
20957;DHT22;10637;47.970;7.830;2023-03-03T01:45:22;1.70;99.90
20957;DHT22;10637;47.970;7.830;2023-03-03T01:50:32;1.80;99.90
20957;DHT22;10637;47.970;7.830;2023-03-03T01:55:36;1.80;99.90
20957;DHT22;10637;47.970;7.830;2023-03-03T02:00:41;1.70;99.90
20957;DHT22;10637;47.970;7.830;2023-03-03T02:05:44;1.50;99.90
20957;DHT22;10637;47.970;7.830;2023-03-03T02:10:47;1.70;99.90
20957;DHT22;10637;47.970;7.830;2023-03-03T02:15:49;1.80;99.90
20957;DHT22;10637;47.970;7.830;2023-03-03T02:21:06;1.90;99.90
20957;DHT22;10637;47.970;7.830;2023-03-03T02:26:17;2.00;99.90
20957;DHT22;10637;47.970;7.830;2023-03-03T02:31:23;2.00;99.90
20957;DHT22;10637;47.970;7.830;2023-03-03T02:36:31;1.70;99.90
20957;DHT22;10637;47.970;7.830;2023-03-03T02:46:52;1.40;99.90
20957;DHT22;10637;47.970;7.830;2023-03-03T02:51:54;1.20;99.90
20957;DHT22;10637;47.970;7.830;2023-03-03T02:56:57;1.50;99.90
20957;DHT22;10637;47.970;7.830;2023-03-03T03:01:59;1.60;99.90
20957;DHT22;10637;47.970;7.830;2023-03-03T03:07:01;1.50;99.90
20957;DHT22;10637;47.970;7.830;2023-03-03T03:12:04;1.60;99.90
20957;DHT22;10637;47.970;7.830;2023-03-03T03:17:06;1.30;99.90
20957;DHT22;10637;47.970;7.830;2023-03-03T03:22:07;1.20;99.90
20957;DHT22;10637;47.970;7.830;2023-03-03T03:27:09;1.40;99.90
20957;DHT22;10637;47.970;7.830;2023-03-03T03:32:11;1.60;99.90
20957;DHT22;10637;47.970;7.830;2023-03-03T03:37:13;1.70;99.90
20957;DHT22;10637;47.970;7.830;2023-03-03T03:42:15;1.60;99.90
20957;DHT22;10637;47.970;7.830;2023-03-03T03:47:16;1.60;99.90
20957;DHT22;10637;47.970;7.830;2023-03-03T03:52:18;1.40;99.90
20957;DHT22;10637;47.970;7.830;2023-03-03T03:57:20;1.20;99.90
20957;DHT22;10637;47.970;7.830;2023-03-03T04:02:22;1.20;99.90
20957;DHT22;10637;47.970;7.830;2023-03-03T04:07:24;1.10;99.90
20957;DHT22;10637;47.970;7.830;2023-03-03T04:12:25;1.30;99.90
20957;DHT22;10637;47.970;7.830;2023-03-03T04:17:27;1.40;99.90
20957;DHT22;10637;47.970;7.830;2023-03-03T04:22:29;1.50;99.90
20957;DHT22;10637;47.970;7.830;2023-03-03T04:27:35;1.60;99.90
20957;DHT22;10637;47.970;7.830;2023-03-03T04:32:37;1.50;99.90
20957;DHT22;10637;47.970;7.830;2023-03-03T04:37:38;1.20;99.90
20957;DHT22;10637;47.970;7.830;2023-03-03T04:42:40;1.40;99.90
20957;DHT22;10637;47.970;7.830;2023-03-03T04:47:42;1.60;99.90
20957;DHT22;10637;47.970;7.830;2023-03-03T04:52:44;1.70;99.90
20957;DHT22;10637;47.970;7.830;2023-03-03T04:57:46;1.70;99.90
20957;DHT22;10637;47.970;7.830;2023-03-03T05:02:47;1.70;99.90
20957;DHT22;10637;47.970;7.830;2023-03-03T05:07:49;1.60;99.90
20957;DHT22;10637;47.970;7.830;2023-03-03T05:12:51;1.60;99.90
20957;DHT22;10637;47.970;7.830;2023-03-03T05:17:53;1.70;99.90
20957;DHT22;10637;47.970;7.830;2023-03-03T05:22:56;1.70;99.90
20957;DHT22;10637;47.970;7.830;2023-03-03T05:28:01;1.60;99.90
20957;DHT22;10637;47.970;7.830;2023-03-03T05:33:05;1.90;99.90
20957;DHT22;10637;47.970;7.830;2023-03-03T05:38:07;1.90;99.90
20957;DHT22;10637;47.970;7.830;2023-03-03T05:43:09;2.20;99.90
20957;DHT22;10637;47.970;7.830;2023-03-03T05:48:11;2.30;99.90
20957;DHT22;10637;47.970;7.830;2023-03-03T05:53:12;2.40;99.90
20957;DHT22;10637;47.970;7.830;2023-03-03T05:58:14;2.40;99.90
20957;DHT22;10637;47.970;7.830;2023-03-03T06:03:16;2.50;99.90
20957;DHT22;10637;47.970;7.830;2023-03-03T06:08:18;2.40;99.90
20957;DHT22;10637;47.970;7.830;2023-03-03T06:13:20;2.40;99.90
20957;DHT22;10637;47.970;7.830;2023-03-03T06:18:22;2.40;99.90
20957;DHT22;10637;47.970;7.830;2023-03-03T06:23:24;2.60;99.90
20957;DHT22;10637;47.970;7.830;2023-03-03T06:28:25;2.60;99.90
20957;DHT22;10637;47.970;7.830;2023-03-03T06:33:27;2.80;99.90
20957;DHT22;10637;47.970;7.830;2023-03-03T06:38:29;2.90;99.90
20957;DHT22;10637;47.970;7.830;2023-03-03T06:43:33;3.00;99.90
20957;DHT22;10637;47.970;7.830;2023-03-03T06:48:37;3.20;99.90
20957;DHT22;10637;47.970;7.830;2023-03-03T06:53:40;3.30;99.90
20957;DHT22;10637;47.970;7.830;2023-03-03T06:58:42;3.30;99.90
20957;DHT22;10637;47.970;7.830;2023-03-03T07:03:43;3.50;99.90
20957;DHT22;10637;47.970;7.830;2023-03-03T07:08:46;3.60;99.90
20957;DHT22;10637;47.970;7.830;2023-03-03T07:13:52;3.70;99.90
20957;DHT22;10637;47.970;7.830;2023-03-03T07:18:57;3.80;99.90
20957;DHT22;10637;47.970;7.830;2023-03-03T07:24:28;4.00;99.90
20957;DHT22;10637;47.970;7.830;2023-03-03T07:29:31;4.00;99.90
20957;DHT22;10637;47.970;7.830;2023-03-03T07:34:40;4.20;99.90
20957;DHT22;10637;47.970;7.830;2023-03-03T07:39:46;4.10;99.90
20957;DHT22;10637;47.970;7.830;2023-03-03T07:44:52;4.00;99.90
20957;DHT22;10637;47.970;7.830;2023-03-03T07:49:57;4.40;99.90
20957;DHT22;10637;47.970;7.830;2023-03-03T07:55:24;4.40;99.90
20957;DHT22;10637;47.970;7.830;2023-03-03T08:10:46;5.00;99.90
20957;DHT22;10637;47.970;7.830;2023-03-03T08:21:12;5.30;99.90
20957;DHT22;10637;47.970;7.830;2023-03-03T08:26:15;5.30;99.90
20957;DHT22;10637;47.970;7.830;2023-03-03T08:31:17;5.50;99.90
20957;DHT22;10637;47.970;7.830;2023-03-03T08:36:39;5.30;99.90
20957;DHT22;10637;47.970;7.830;2023-03-03T08:41:41;5.40;99.90
20957;DHT22;10637;47.970;7.830;2023-03-03T08:46:45;5.50;99.90
20957;DHT22;10637;47.970;7.830;2023-03-03T08:51:46;5.60;99.90
20957;DHT22;10637;47.970;7.830;2023-03-03T08:56:48;5.70;99.90
20957;DHT22;10637;47.970;7.830;2023-03-03T09:01:50;6.00;99.90
20957;DHT22;10637;47.970;7.830;2023-03-03T09:06:53;6.10;99.90
20957;DHT22;10637;47.970;7.830;2023-03-03T09:12:08;6.20;99.90
20957;DHT22;10637;47.970;7.830;2023-03-03T09:17:24;6.40;99.90
20957;DHT22;10637;47.970;7.830;2023-03-03T09:22:27;6.50;99.90
20957;DHT22;10637;47.970;7.830;2023-03-03T09:27:34;6.80;99.90
20957;DHT22;10637;47.970;7.830;2023-03-03T09:32:37;6.90;99.90
20957;DHT22;10637;47.970;7.830;2023-03-03T09:37:43;6.90;99.90
20957;DHT22;10637;47.970;7.830;2023-03-03T09:43:03;7.20;99.90
20957;DHT22;10637;47.970;7.830;2023-03-03T09:48:28;7.10;99.90
20957;DHT22;10637;47.970;7.830;2023-03-03T09:54:03;7.50;99.90
20957;DHT22;10637;47.970;7.830;2023-03-03T09:59:28;7.60;99.90
20957;DHT22;10637;47.970;7.830;2023-03-03T10:21:04;8.40;99.90
20957;DHT22;10637;47.970;7.830;2023-03-03T10:26:20;8.40;99.90
20957;DHT22;10637;47.970;7.830;2023-03-03T10:31:56;8.90;99.20
20957;DHT22;10637;47.970;7.830;2023-03-03T10:37:12;9.50;98.40
20957;DHT22;10637;47.970;7.830;2023-03-03T10:58:18;10.20;94.90
20957;DHT22;10637;47.970;7.830;2023-03-03T11:20:08;12.80;89.80
20957;DHT22;10637;47.970;7.830;2023-03-03T11:25:26;12.80;90.30
20957;DHT22;10637;47.970;7.830;2023-03-03T11:41:34;13.30;86.80
20957;DHT22;10637;47.970;7.830;2023-03-03T11:46:48;13.40;86.60
20957;DHT22;10637;47.970;7.830;2023-03-03T12:07:53;13.10;85.60
20957;DHT22;10637;47.970;7.830;2023-03-03T12:13:05;12.90;86.80
20957;DHT22;10637;47.970;7.830;2023-03-03T12:18:36;13.40;86.00
20957;DHT22;10637;47.970;7.830;2023-03-03T12:24:57;13.10;86.40
20957;DHT22;10637;47.970;7.830;2023-03-03T12:35:15;12.50;88.40
20957;DHT22;10637;47.970;7.830;2023-03-03T12:40:44;12.30;89.70
20957;DHT22;10637;47.970;7.830;2023-03-03T12:56:12;14.00;84.70
20957;DHT22;10637;47.970;7.830;2023-03-03T13:06:51;15.70;81.20
20957;DHT22;10637;47.970;7.830;2023-03-03T13:12:21;16.30;77.80
20957;DHT22;10637;47.970;7.830;2023-03-03T13:17:37;16.50;76.30
20957;DHT22;10637;47.970;7.830;2023-03-03T13:22:45;17.10;75.90
20957;DHT22;10637;47.970;7.830;2023-03-03T13:27:54;17.60;74.60
20957;DHT22;10637;47.970;7.830;2023-03-03T13:33:20;17.70;73.50
20957;DHT22;10637;47.970;7.830;2023-03-03T13:38:33;17.90;72.50
20957;DHT22;10637;47.970;7.830;2023-03-03T14:00:01;17.50;73.00
20957;DHT22;10637;47.970;7.830;2023-03-03T14:10:33;14.80;78.50
20957;DHT22;10637;47.970;7.830;2023-03-03T14:16:08;14.20;80.70
20957;DHT22;10637;47.970;7.830;2023-03-03T14:21:18;13.70;82.40
20957;DHT22;10637;47.970;7.830;2023-03-03T14:26:21;13.20;84.30
20957;DHT22;10637;47.970;7.830;2023-03-03T14:31:37;12.80;86.80
20957;DHT22;10637;47.970;7.830;2023-03-03T14:36:41;12.60;86.80
20957;DHT22;10637;47.970;7.830;2023-03-03T14:41:43;12.80;87.50
20957;DHT22;10637;47.970;7.830;2023-03-03T14:46:45;13.40;85.70
20957;DHT22;10637;47.970;7.830;2023-03-03T14:52:32;14.20;84.10
20957;DHT22;10637;47.970;7.830;2023-03-03T15:12:58;14.00;82.20
20957;DHT22;10637;47.970;7.830;2023-03-03T15:18:09;13.20;84.90
20957;DHT22;10637;47.970;7.830;2023-03-03T15:23:29;12.70;86.20
20957;DHT22;10637;47.970;7.830;2023-03-03T16:01:39;10.70;91.50
20957;DHT22;10637;47.970;7.830;2023-03-03T16:11:52;10.40;91.80
20957;DHT22;10637;47.970;7.830;2023-03-03T16:28:12;10.10;92.90
20957;DHT22;10637;47.970;7.830;2023-03-03T16:33:49;9.90;93.20
20957;DHT22;10637;47.970;7.830;2023-03-03T16:39:12;9.90;93.50
20957;DHT22;10637;47.970;7.830;2023-03-03T16:50:06;9.80;93.70
20957;DHT22;10637;47.970;7.830;2023-03-03T17:01:09;9.60;94.20
20957;DHT22;10637;47.970;7.830;2023-03-03T17:06:20;9.60;94.50
20957;DHT22;10637;47.970;7.830;2023-03-03T17:11:48;9.60;94.00
20957;DHT22;10637;47.970;7.830;2023-03-03T17:17:20;9.50;94.90
20957;DHT22;10637;47.970;7.830;2023-03-03T17:55:33;8.60;98.30
20957;DHT22;10637;47.970;7.830;2023-03-03T18:11:36;8.40;99.40
20957;DHT22;10637;47.970;7.830;2023-03-03T18:22:45;7.90;99.90
20957;DHT22;10637;47.970;7.830;2023-03-03T18:27:40;7.80;99.90
20957;DHT22;10637;47.970;7.830;2023-03-03T18:37:56;7.40;99.90
20957;DHT22;10637;47.970;7.830;2023-03-03T18:42:58;7.20;99.90
20957;DHT22;10637;47.970;7.830;2023-03-03T18:48:50;7.10;99.90
20957;DHT22;10637;47.970;7.830;2023-03-03T19:04:38;6.90;99.90
20957;DHT22;10637;47.970;7.830;2023-03-03T19:09:47;6.70;99.90
20957;DHT22;10637;47.970;7.830;2023-03-03T19:14:52;6.40;99.90
20957;DHT22;10637;47.970;7.830;2023-03-03T19:20:11;6.60;99.90
20957;DHT22;10637;47.970;7.830;2023-03-03T19:25:26;6.50;99.90
20957;DHT22;10637;47.970;7.830;2023-03-03T19:31:14;6.40;99.90
20957;DHT22;10637;47.970;7.830;2023-03-03T19:52:06;6.30;99.90
20957;DHT22;10637;47.970;7.830;2023-03-03T20:08:30;5.50;99.90
20957;DHT22;10637;47.970;7.830;2023-03-03T20:30:21;5.10;99.90
20957;DHT22;10637;47.970;7.830;2023-03-03T20:45:59;4.90;99.90
20957;DHT22;10637;47.970;7.830;2023-03-03T21:01:42;4.50;99.90
20957;DHT22;10637;47.970;7.830;2023-03-03T21:06:46;4.50;99.90
20957;DHT22;10637;47.970;7.830;2023-03-03T21:11:49;4.50;99.90
20957;DHT22;10637;47.970;7.830;2023-03-03T21:16:56;4.50;99.90
20957;DHT22;10637;47.970;7.830;2023-03-03T21:21:59;4.30;99.90
20957;DHT22;10637;47.970;7.830;2023-03-03T21:27:32;4.40;99.90
20957;DHT22;10637;47.970;7.830;2023-03-03T21:32:45;4.40;99.90
20957;DHT22;10637;47.970;7.830;2023-03-03T21:37:55;4.10;99.90
20957;DHT22;10637;47.970;7.830;2023-03-03T21:42:58;4.00;99.90
20957;DHT22;10637;47.970;7.830;2023-03-03T21:48:03;4.00;99.90
20957;DHT22;10637;47.970;7.830;2023-03-03T21:53:05;3.60;99.90
20957;DHT22;10637;47.970;7.830;2023-03-03T21:58:07;3.00;99.90
20957;DHT22;10637;47.970;7.830;2023-03-03T22:03:12;3.30;99.90
20957;DHT22;10637;47.970;7.830;2023-03-03T22:08:15;3.50;99.90
20957;DHT22;10637;47.970;7.830;2023-03-03T22:13:24;3.60;99.90
20957;DHT22;10637;47.970;7.830;2023-03-03T22:18:26;3.50;99.90
20957;DHT22;10637;47.970;7.830;2023-03-03T22:23:28;3.50;99.90
20957;DHT22;10637;47.970;7.830;2023-03-03T22:28:29;3.20;99.90
20957;DHT22;10637;47.970;7.830;2023-03-03T22:33:31;3.20;99.90
20957;DHT22;10637;47.970;7.830;2023-03-03T22:38:33;3.10;99.90
20957;DHT22;10637;47.970;7.830;2023-03-03T22:43:35;3.40;99.90
20957;DHT22;10637;47.970;7.830;2023-03-03T22:48:37;3.20;99.90
20957;DHT22;10637;47.970;7.830;2023-03-03T22:53:39;3.30;99.90
20957;DHT22;10637;47.970;7.830;2023-03-03T22:58:41;3.50;99.90
20957;DHT22;10637;47.970;7.830;2023-03-03T23:03:42;3.60;99.90
20957;DHT22;10637;47.970;7.830;2023-03-03T23:08:44;3.40;99.90
20957;DHT22;10637;47.970;7.830;2023-03-03T23:13:46;3.30;99.90
20957;DHT22;10637;47.970;7.830;2023-03-03T23:18:47;3.30;99.90
20957;DHT22;10637;47.970;7.830;2023-03-03T23:23:49;3.00;99.90
20957;DHT22;10637;47.970;7.830;2023-03-03T23:28:51;3.00;99.90
20957;DHT22;10637;47.970;7.830;2023-03-03T23:33:53;3.00;99.90
20957;DHT22;10637;47.970;7.830;2023-03-03T23:38:54;2.90;99.90
20957;DHT22;10637;47.970;7.830;2023-03-03T23:43:56;2.80;99.90
20957;DHT22;10637;47.970;7.830;2023-03-03T23:48:58;2.60;99.90
20957;DHT22;10637;47.970;7.830;2023-03-03T23:54:02;2.70;99.90
20957;DHT22;10637;47.970;7.830;2023-03-03T23:59:04;2.70;99.90
